Time;durP1;ratioP1;P1;durP2;ratioP2;P2;SDS_P1;SDS_P2;PMS_P1;PMS_P2;Temp;Humidity;BMP_temperature;BMP_pressure;BME280_temperature;BME280_humidity;BME280_pressure;Samples;Min_cycle;Max_cycle;Signal;HPM_P1;HPM_P2
2021/05/05 00:00:37;;;;;;;2.70;0.70;;;7.20;85.20;;;;;;5056115;28;20407;-71
2021/05/05 00:03:03;;;;;;;0.60;0.60;;;7.20;85.20;;;;;;5056013;28;20025;-70
2021/05/05 00:05:28;;;;;;;0.60;0.60;;;7.20;85.10;;;;;;5055986;28;20542;-71
2021/05/05 00:07:54;;;;;;;0.65;0.65;;;7.30;85.00;;;;;;5055924;28;20025;-71
2021/05/05 00:10:19;;;;;;;0.88;0.88;;;7.30;84.90;;;;;;5056219;28;20044;-71
2021/05/05 00:12:45;;;;;;;0.82;0.60;;;7.40;84.80;;;;;;5055529;28;20021;-71
2021/05/05 00:15:23;;;;;;;1.63;0.75;;;7.40;84.80;;;;;;5055978;28;20032;-71
2021/05/05 00:17:49;;;;;;;1.63;0.95;;;7.40;84.60;;;;;;5055625;28;20108;-71
2021/05/05 00:20:16;;;;;;;2.15;0.80;;;7.40;84.60;;;;;;5055676;28;20044;-71
2021/05/05 00:22:42;;;;;;;0.93;0.90;;;7.40;84.80;;;;;;5037973;28;20032;-71
2021/05/05 00:25:09;;;;;;;1.08;1.08;;;7.40;84.80;;;;;;5055669;28;20036;-71
2021/05/05 00:27:34;;;;;;;2.03;1.20;;;7.40;84.80;;;;;;5055335;28;20033;-71
2021/05/05 00:30:00;;;;;;;1.15;0.70;;;7.30;84.80;;;;;;5055618;28;20021;-71
2021/05/05 00:32:26;;;;;;;1.52;1.30;;;7.30;84.90;;;;;;5055407;28;20029;-71
2021/05/05 00:34:52;;;;;;;1.77;1.63;;;7.30;85.00;;;;;;5055548;28;20021;-71
2021/05/05 00:37:17;;;;;;;0.82;0.80;;;7.30;85.00;;;;;;5055447;28;20057;-71
2021/05/05 00:39:43;;;;;;;1.25;0.60;;;7.30;85.00;;;;;;5054212;28;20025;-71
2021/05/05 00:42:08;;;;;;;0.73;0.73;;;7.30;85.00;;;;;;5054980;28;20048;-71
2021/05/05 00:44:34;;;;;;;1.10;0.93;;;7.40;84.90;;;;;;5055199;28;20497;-71
2021/05/05 00:47:01;;;;;;;0.80;0.80;;;7.40;84.80;;;;;;5055346;28;20037;-72
2021/05/05 00:49:27;;;;;;;0.52;0.52;;;7.40;84.70;;;;;;5055258;28;20094;-70
2021/05/05 00:51:53;;;;;;;1.30;0.90;;;7.40;84.70;;;;;;5055081;28;20100;-70
2021/05/05 00:54:18;;;;;;;0.82;0.50;;;7.50;84.70;;;;;;5055172;28;20064;-71
2021/05/05 00:56:44;;;;;;;0.50;0.50;;;7.50;84.70;;;;;;5054633;28;20025;-71
2021/05/05 00:59:11;;;;;;;1.15;1.00;;;7.40;84.60;;;;;;5054680;28;20053;-71
2021/05/05 01:01:39;;;;;;;1.13;1.00;;;7.40;84.70;;;;;;5054954;28;20439;-71
2021/05/05 01:04:04;;;;;;;1.55;0.80;;;7.40;84.70;;;;;;5054744;28;20043;-71
2021/05/05 01:06:30;;;;;;;0.90;0.90;;;7.40;84.70;;;;;;5037048;28;20381;-71
2021/05/05 01:08:55;;;;;;;0.75;0.57;;;7.40;84.80;;;;;;5054866;28;20028;-71
2021/05/05 01:11:21;;;;;;;1.38;1.27;;;7.30;84.70;;;;;;5054446;28;20017;-71
2021/05/05 01:13:46;;;;;;;0.88;0.88;;;7.30;84.80;;;;;;5054739;28;20024;-71
2021/05/05 01:16:15;;;;;;;1.08;0.90;;;7.30;84.60;;;;;;5036776;28;20528;-71
2021/05/05 01:18:42;;;;;;;0.95;0.95;;;7.40;84.70;;;;;;5054655;28;20534;-71
2021/05/05 01:21:08;;;;;;;0.90;0.90;;;7.30;84.60;;;;;;5054545;28;20033;-71
2021/05/05 01:23:34;;;;;;;0.70;0.57;;;7.40;84.70;;;;;;5054590;28;20098;-71
2021/05/05 01:26:00;;;;;;;0.80;0.80;;;7.40;84.60;;;;;;5054128;28;20017;-71
2021/05/05 01:28:25;;;;;;;1.77;1.20;;;7.40;84.60;;;;;;5054461;28;20091;-71
2021/05/05 01:30:52;;;;;;;0.70;0.70;;;7.40;84.40;;;;;;5054461;28;20416;-71
2021/05/05 01:33:18;;;;;;;1.23;1.15;;;7.40;84.60;;;;;;5054336;28;20048;-71
2021/05/05 01:35:46;;;;;;;1.10;0.88;;;7.30;84.80;;;;;;5054298;28;20021;-71
2021/05/05 01:38:13;;;;;;;1.25;1.17;;;7.20;85.30;;;;;;5046315;28;20025;-71
2021/05/05 01:40:42;;;;;;;1.02;0.90;;;7.10;85.50;;;;;;5053695;28;20482;-70
2021/05/05 01:43:07;;;;;;;1.30;0.90;;;6.90;85.80;;;;;;5054251;28;20055;-71
2021/05/05 01:45:35;;;;;;;0.70;0.68;;;6.60;86.10;;;;;;5054240;28;20025;-70
2021/05/05 01:48:04;;;;;;;0.70;0.70;;;6.40;86.60;;;;;;5054319;28;20075;-71
2021/05/05 01:50:30;;;;;;;1.52;0.88;;;6.30;86.90;;;;;;5053751;28;20476;-70
2021/05/05 01:52:56;;;;;;;0.63;0.60;;;6.30;86.90;;;;;;5054073;28;20025;-70
2021/05/05 01:55:21;;;;;;;1.75;1.48;;;6.30;86.80;;;;;;5053556;28;20039;-71
2021/05/05 01:57:47;;;;;;;0.68;0.63;;;6.30;86.80;;;;;;5053749;28;20044;-71
2021/05/05 02:00:15;;;;;;;0.65;0.65;;;6.30;86.60;;;;;;5053835;28;20112;-71
2021/05/05 02:02:41;;;;;;;0.35;0.35;;;6.30;87.20;;;;;;5053957;28;20021;-70
2021/05/05 02:05:07;;;;;;;0.82;0.82;;;6.30;86.70;;;;;;5053887;28;20101;-71
2021/05/05 02:07:33;;;;;;;1.52;0.80;;;6.20;86.50;;;;;;5053770;28;20028;-70
2021/05/05 02:09:59;;;;;;;1.75;1.23;;;6.20;86.60;;;;;;5053188;28;20025;-70
2021/05/05 02:12:25;;;;;;;0.60;0.60;;;6.10;86.70;;;;;;5053544;28;20151;-71
2021/05/05 02:14:50;;;;;;;0.90;0.90;;;6.10;86.80;;;;;;5053635;28;20053;-71
2021/05/05 02:17:17;;;;;;;0.52;0.50;;;6.00;86.90;;;;;;5053722;28;20055;-71
2021/05/05 02:19:43;;;;;;;1.33;1.05;;;6.00;87.00;;;;;;5053512;28;20498;-71
2021/05/05 02:22:09;;;;;;;0.90;0.63;;;6.00;87.10;;;;;;5053380;28;20036;-71
2021/05/05 02:24:34;;;;;;;0.50;0.50;;;6.00;87.10;;;;;;5052941;28;20392;-71
2021/05/05 02:27:00;;;;;;;0.80;0.80;;;6.00;87.00;;;;;;5053603;28;20021;-71
2021/05/05 02:29:25;;;;;;;1.08;0.98;;;6.00;87.00;;;;;;5053315;28;20029;-71
2021/05/05 02:31:51;;;;;;;0.40;0.40;;;6.00;87.00;;;;;;5053344;28;20028;-71
2021/05/05 02:34:17;;;;;;;2.47;1.23;;;6.00;86.80;;;;;;5053394;28;20151;-70
2021/05/05 02:36:43;;;;;;;0.65;0.63;;;6.00;86.90;;;;;;5035452;28;20501;-70
2021/05/05 02:39:11;;;;;;;0.73;0.60;;;6.00;86.90;;;;;;5052773;28;20033;-71
2021/05/05 02:41:38;;;;;;;1.20;0.65;;;6.00;86.90;;;;;;5053229;28;20117;-71
2021/05/05 02:44:04;;;;;;;1.00;0.68;;;5.90;86.90;;;;;;5053139;28;20020;-71
2021/05/05 02:46:29;;;;;;;0.40;0.40;;;5.90;86.90;;;;;;5053275;28;20025;-70
2021/05/05 02:48:55;;;;;;;2.05;0.50;;;5.90;87.00;;;;;;5053203;28;20142;-71
2021/05/05 02:51:20;;;;;;;0.55;0.47;;;5.90;87.00;;;;;;5052675;28;20074;-71
2021/05/05 02:53:46;;;;;;;0.45;0.45;;;5.90;86.80;;;;;;5052928;28;20033;-71
2021/05/05 02:56:11;;;;;;;3.50;0.98;;;6.00;86.90;;;;;;5052999;28;20017;-70
2021/05/05 02:58:37;;;;;;;1.42;0.68;;;6.00;87.00;;;;;;5052895;28;20060;-71
2021/05/05 03:01:03;;;;;;;1.00;1.00;;;6.00;86.90;;;;;;5052913;28;20056;-71
2021/05/05 03:03:28;;;;;;;1.02;0.65;;;6.00;87.00;;;;;;5056499;28;20526;-70
2021/05/05 03:05:54;;;;;;;2.05;0.73;;;6.00;86.90;;;;;;5056758;28;20032;-71
2021/05/05 03:08:20;;;;;;;3.10;0.73;;;6.00;87.00;;;;;;5057073;28;20029;-70
2021/05/05 03:10:46;;;;;;;1.85;0.88;;;6.00;87.10;;;;;;5057031;28;20040;-71
2021/05/05 03:13:12;;;;;;;0.68;0.60;;;6.00;87.20;;;;;;5056968;28;20021;-71
2021/05/05 03:15:38;;;;;;;1.20;0.98;;;6.00;87.20;;;;;;5056895;28;20499;-71
2021/05/05 03:18:04;;;;;;;0.60;0.60;;;6.00;87.20;;;;;;5057041;28;20021;-71
2021/05/05 03:20:29;;;;;;;1.13;0.88;;;6.00;87.20;;;;;;5056232;28;20041;-70
2021/05/05 03:22:55;;;;;;;1.05;0.70;;;6.00;87.30;;;;;;5056785;28;20017;-71
2021/05/05 03:25:20;;;;;;;0.60;0.60;;;6.00;87.40;;;;;;5056722;28;20021;-71
2021/05/05 03:27:46;;;;;;;2.42;1.02;;;6.00;87.30;;;;;;5038571;28;20477;-71
2021/05/05 03:30:12;;;;;;;1.35;0.80;;;6.00;87.30;;;;;;5056628;28;20033;-70
2021/05/05 03:32:37;;;;;;;1.70;1.33;;;6.00;87.30;;;;;;5056443;28;20476;-70
2021/05/05 03:35:04;;;;;;;1.88;0.88;;;6.00;87.40;;;;;;5056302;28;20031;-71
2021/05/05 03:37:30;;;;;;;0.98;0.90;;;6.00;87.40;;;;;;5055664;28;20074;-70
2021/05/05 03:39:56;;;;;;;0.75;0.60;;;6.10;87.50;;;;;;5056304;28;20061;-70
2021/05/05 03:42:21;;;;;;;1.15;0.82;;;6.00;87.40;;;;;;5056619;28;20019;-71
2021/05/05 03:44:47;;;;;;;1.05;0.95;;;6.00;87.50;;;;;;5056369;28;20075;-71
2021/05/05 03:47:12;;;;;;;1.20;1.10;;;6.00;87.50;;;;;;5056397;28;20021;-71
2021/05/05 03:49:38;;;;;;;1.08;1.00;;;6.00;87.50;;;;;;5055746;28;20527;-71
2021/05/05 03:52:04;;;;;;;1.50;1.10;;;6.00;87.50;;;;;;5056279;28;20021;-71
2021/05/05 03:54:29;;;;;;;1.38;1.00;;;6.00;87.60;;;;;;5056348;28;20032;-71
2021/05/05 03:56:55;;;;;;;1.83;1.05;;;6.00;87.60;;;;;;5055974;28;20029;-71
2021/05/05 03:59:20;;;;;;;1.45;1.35;;;6.00;87.60;;;;;;5055800;28;20128;-70
2021/05/05 04:01:46;;;;;;;1.73;1.20;;;6.00;87.70;;;;;;5056196;28;20029;-71
2021/05/05 04:04:12;;;;;;;2.17;0.93;;;6.00;87.80;;;;;;5037652;28;20465;-71
2021/05/05 04:06:37;;;;;;;1.30;1.13;;;5.90;87.80;;;;;;5055927;28;20040;-71
2021/05/05 04:09:03;;;;;;;0.98;0.98;;;5.90;87.80;;;;;;5055805;28;20025;-71
2021/05/05 04:11:29;;;;;;;1.35;0.85;;;6.00;87.80;;;;;;5055786;28;20032;-71
2021/05/05 04:13:55;;;;;;;1.63;1.52;;;6.00;87.80;;;;;;5055650;28;20025;-71
2021/05/05 04:16:20;;;;;;;1.02;0.88;;;6.00;87.80;;;;;;5055813;28;20031;-71
2021/05/05 04:18:46;;;;;;;1.50;1.40;;;6.00;87.80;;;;;;5055390;28;20047;-70
2021/05/05 04:21:11;;;;;;;2.90;1.23;;;6.00;87.70;;;;;;5055862;28;20065;-71
2021/05/05 04:23:37;;;;;;;2.50;1.42;;;6.00;87.70;;;;;;5037676;28;20361;-71
2021/05/05 04:26:05;;;;;;;1.50;1.40;;;6.00;87.90;;;;;;5055509;28;20029;-71
2021/05/05 04:28:31;;;;;;;1.67;1.58;;;6.00;87.90;;;;;;5055538;28;20048;-71
2021/05/05 04:30:56;;;;;;;1.02;0.90;;;6.00;87.90;;;;;;5055416;28;20100;-71
2021/05/05 04:33:22;;;;;;;1.20;1.10;;;6.00;87.90;;;;;;5054987;28;20473;-71
2021/05/05 04:35:48;;;;;;;1.17;0.90;;;6.00;87.90;;;;;;5055496;28;20036;-71
2021/05/05 04:38:14;;;;;;;0.80;0.80;;;6.00;87.90;;;;;;5055351;28;20020;-71
2021/05/05 04:40:40;;;;;;;1.30;1.23;;;6.00;87.80;;;;;;5055101;28;20037;-72
2021/05/05 04:43:06;;;;;;;2.40;0.93;;;6.00;87.80;;;;;;5055159;28;20049;-71
2021/05/05 04:45:31;;;;;;;1.60;0.82;;;6.00;87.70;;;;;;5055725;28;20377;-71
2021/05/05 04:47:59;;;;;;;2.70;0.73;;;6.00;87.70;;;;;;5054799;28;20017;-71
2021/05/05 04:50:25;;;;;;;0.88;0.82;;;6.10;87.80;;;;;;5055207;28;20503;-71
2021/05/05 04:52:50;;;;;;;1.13;1.02;;;6.10;87.70;;;;;;5037024;28;20124;-71
2021/05/05 04:55:16;;;;;;;0.93;0.80;;;6.10;87.60;;;;;;5055122;28;20056;-71
2021/05/05 04:57:41;;;;;;;1.10;1.00;;;6.10;87.60;;;;;;5054859;28;20033;-71
2021/05/05 05:00:08;;;;;;;1.70;1.20;;;6.20;87.70;;;;;;5054835;28;20033;-71
2021/05/05 05:02:34;;;;;;;2.17;0.80;;;6.20;87.70;;;;;;5054598;28;20546;-71
2021/05/05 05:05:01;;;;;;;1.00;1.00;;;6.20;87.70;;;;;;5055223;28;20104;-71
2021/05/05 05:07:27;;;;;;;1.20;0.90;;;6.20;87.70;;;;;;5036959;28;20025;-71
2021/05/05 05:09:52;;;;;;;0.90;0.90;;;6.20;87.70;;;;;;5054899;28;20413;-71
2021/05/05 05:12:18;;;;;;;1.73;1.20;;;6.20;87.80;;;;;;5054787;28;20354;-70
2021/05/05 05:14:43;;;;;;;2.08;1.10;;;6.20;87.80;;;;;;5054847;28;20020;-70
2021/05/05 05:17:09;;;;;;;1.23;1.13;;;6.20;87.80;;;;;;5054038;28;20465;-71
2021/05/05 05:19:35;;;;;;;1.92;1.20;;;6.20;87.90;;;;;;5054669;28;20491;-71
2021/05/05 05:22:00;;;;;;;2.33;1.38;;;6.10;87.90;;;;;;5054735;28;20021;-71
2021/05/05 05:24:27;;;;;;;1.65;1.20;;;6.10;88.20;;;;;;5054087;28;20029;-70
2021/05/05 05:26:53;;;;;;;1.05;1.00;;;6.20;88.10;;;;;;5036648;28;20035;-71
2021/05/05 05:29:18;;;;;;;1.02;0.93;;;6.20;88.00;;;;;;5054465;28;20100;-71
2021/05/05 05:31:44;;;;;;;3.55;1.30;;;6.20;88.00;;;;;;5054020;28;20492;-70
2021/05/05 05:34:10;;;;;;;1.20;1.10;;;6.20;88.10;;;;;;5054279;28;20024;-70
2021/05/05 05:36:35;;;;;;;1.48;1.00;;;6.10;88.00;;;;;;5036773;28;20059;-71
2021/05/05 05:39:01;;;;;;;3.53;1.23;;;6.20;88.20;;;;;;5050445;28;20055;-71
2021/05/05 05:41:27;;;;;;;1.38;1.00;;;6.20;88.00;;;;;;5054017;28;20037;-72
2021/05/05 05:43:53;;;;;;;1.73;0.93;;;6.20;88.00;;;;;;5054114;28;20028;-70
2021/05/05 05:46:18;;;;;;;2.03;1.55;;;6.10;88.10;;;;;;5053616;28;20032;-71
2021/05/05 05:48:44;;;;;;;2.00;1.33;;;6.10;88.30;;;;;;5054117;28;20024;-71
2021/05/05 05:51:10;;;;;;;1.33;1.00;;;6.10;88.40;;;;;;5053908;28;20021;-71
2021/05/05 05:53:35;;;;;;;2.08;1.20;;;6.10;88.40;;;;;;5053987;28;20021;-71
2021/05/05 05:56:01;;;;;;;1.63;1.30;;;6.10;88.30;;;;;;5053835;28;20020;-71
2021/05/05 05:58:26;;;;;;;2.55;1.55;;;6.20;88.20;;;;;;5035825;28;20099;-71
2021/05/05 06:00:52;;;;;;;2.35;1.33;;;6.30;88.20;;;;;;5053551;28;20032;-71
2021/05/05 06:03:17;;;;;;;1.42;1.33;;;6.40;88.00;;;;;;5053771;28;20052;-71
2021/05/05 06:05:43;;;;;;;1.20;0.98;;;6.50;87.70;;;;;;5053745;28;20389;-71
2021/05/05 06:08:09;;;;;;;1.30;1.20;;;6.60;87.50;;;;;;5053495;28;20104;-71
2021/05/05 06:10:34;;;;;;;1.73;1.05;;;6.60;87.40;;;;;;5053608;28;20108;-71
2021/05/05 06:13:00;;;;;;;1.35;1.25;;;6.80;87.40;;;;;;5053705;28;20056;-71
2021/05/05 06:15:25;;;;;;;0.80;0.80;;;6.90;87.10;;;;;;5053002;28;20051;-71
2021/05/05 06:17:51;;;;;;;1.20;1.08;;;6.90;87.00;;;;;;5053321;28;20481;-71
2021/05/05 06:20:17;;;;;;;1.50;0.93;;;6.90;87.20;;;;;;5035400;28;20025;-71
2021/05/05 06:22:43;;;;;;;1.00;1.00;;;6.90;87.30;;;;;;5053354;28;20029;-71
2021/05/05 06:25:09;;;;;;;2.70;1.20;;;6.90;87.20;;;;;;5053309;28;20108;-71
2021/05/05 06:27:35;;;;;;;1.63;1.52;;;6.90;87.30;;;;;;5053261;28;20036;-71
2021/05/05 06:30:02;;;;;;;0.90;0.90;;;6.90;87.30;;;;;;5053032;28;20029;-71
2021/05/05 06:32:28;;;;;;;1.33;1.08;;;6.80;87.40;;;;;;5053053;28;20078;-71
2021/05/05 06:34:54;;;;;;;0.90;0.90;;;6.80;87.40;;;;;;5053283;28;20147;-71
2021/05/05 06:37:20;;;;;;;2.92;1.23;;;6.90;87.40;;;;;;5052304;28;20023;-71
2021/05/05 06:39:45;;;;;;;0.98;0.93;;;7.00;87.30;;;;;;5053264;28;20051;-71
2021/05/05 06:42:11;;;;;;;2.60;1.13;;;7.00;87.20;;;;;;5053072;28;20052;-70
2021/05/05 06:44:37;;;;;;;1.63;0.88;;;7.00;87.00;;;;;;5052709;28;20029;-71
2021/05/05 06:47:02;;;;;;;0.75;0.75;;;7.10;86.90;;;;;;5053097;28;20069;-71
2021/05/05 06:49:29;;;;;;;1.33;0.95;;;7.20;86.80;;;;;;5053045;28;20029;-70
2021/05/05 06:51:55;;;;;;;0.77;0.77;;;7.50;86.40;;;;;;5053092;28;20028;-71
2021/05/05 06:54:21;;;;;;;0.90;0.85;;;7.70;85.90;;;;;;5053000;28;20416;-70
2021/05/05 06:56:47;;;;;;;1.27;1.13;;;7.70;85.70;;;;;;5052967;28;20033;-71
2021/05/05 06:59:12;;;;;;;1.25;1.00;;;7.80;85.70;;;;;;5052283;28;20045;-70
2021/05/05 07:01:39;;;;;;;1.30;1.20;;;7.90;85.60;;;;;;5052667;28;20094;-71
2021/05/05 07:04:06;;;;;;;1.13;1.05;;;8.00;85.60;;;;;;5052841;28;20017;-70
2021/05/05 07:06:32;;;;;;;1.92;0.90;;;7.90;85.60;;;;;;5052698;28;20017;-71
2021/05/05 07:08:58;;;;;;;1.65;1.00;;;7.70;85.80;;;;;;5052740;28;20021;-71
2021/05/05 07:11:24;;;;;;;2.90;1.10;;;7.70;85.90;;;;;;5052836;28;20111;-71
2021/05/05 07:13:50;;;;;;;3.20;1.00;;;7.70;85.90;;;;;;5052272;28;20029;-71
2021/05/05 07:16:16;;;;;;;1.27;1.17;;;7.80;85.90;;;;;;5052850;28;20029;-71
2021/05/05 07:18:41;;;;;;;0.98;0.90;;;7.80;85.80;;;;;;5034858;28;20048;-70
2021/05/05 07:21:07;;;;;;;1.25;0.82;;;7.90;85.60;;;;;;5046523;28;20067;-70
2021/05/05 07:23:32;;;;;;;3.83;1.00;;;8.00;85.50;;;;;;5024058;28;20115;-70
2021/05/05 07:25:58;;;;;;;2.20;0.90;;;8.10;85.20;;;;;;5032768;28;20026;-70
2021/05/05 07:28:23;;;;;;;2.08;0.98;;;8.00;85.20;;;;;;5034113;28;20063;-69
2021/05/05 07:30:49;;;;;;;1.30;1.20;;;8.00;85.10;;;;;;5052627;28;20027;-70
2021/05/05 07:33:15;;;;;;;1.88;1.08;;;7.90;85.40;;;;;;5052662;28;20469;-70
2021/05/05 07:35:45;;;;;;;1.38;1.05;;;7.90;85.50;;;;;;5050849;28;20440;-70
2021/05/05 07:38:28;;;;;;;0.70;0.70;;;7.90;85.40;;;;;;5046626;28;20025;-69
2021/05/05 07:46:22;;;;;;;1.02;0.98;;;8.00;85.20;;;;;;5033121;28;20034;-69
2021/05/05 07:51:13;;;;;;;2.53;1.05;;;8.10;85.30;;;;;;5036667;28;20516;-70
2021/05/05 07:53:39;;;;;;;0.80;0.80;;;8.20;84.90;;;;;;5038096;28;20029;-69
2021/05/05 07:56:04;;;;;;;1.75;1.02;;;8.40;84.70;;;;;;5037702;28;20017;-70
2021/05/05 07:58:30;;;;;;;1.33;0.90;;;8.60;84.30;;;;;;5055792;28;20045;-69
2021/05/05 08:00:56;;;;;;;1.20;0.93;;;8.70;84.00;;;;;;5091634;23;20057;-69
2021/05/05 08:03:21;;;;;;;0.80;0.80;;;8.70;84.20;;;;;;5071732;28;20092;-69
2021/05/05 08:05:47;;;;;;;1.30;1.10;;;8.60;84.30;;;;;;5096355;28;20028;-70
2021/05/05 08:08:12;;;;;;;1.80;0.90;;;8.40;84.80;;;;;;5096265;28;20059;-69
2021/05/05 08:10:39;;;;;;;1.02;1.00;;;8.10;85.30;;;;;;5077611;28;20016;-70
2021/05/05 08:13:05;;;;;;;1.58;1.13;;;7.80;86.10;;;;;;5095916;28;20026;-69
2021/05/05 08:15:34;;;;;;;1.75;1.20;;;7.50;86.80;;;;;;5096075;28;20154;-71
2021/05/05 08:18:01;;;;;;;1.48;1.25;;;7.30;87.20;;;;;;5090496;28;20176;-69
2021/05/05 08:20:26;;;;;;;2.58;1.20;;;7.00;87.70;;;;;;5077163;28;20113;-70
2021/05/05 08:22:52;;;;;;;1.52;1.42;;;7.00;88.00;;;;;;5080489;28;20459;-69
2021/05/05 08:25:17;;;;;;;1.13;0.80;;;6.90;88.00;;;;;;5095389;28;20036;-70
2021/05/05 08:27:43;;;;;;;1.02;0.93;;;6.90;88.00;;;;;;5095622;28;20494;-69
2021/05/05 08:30:09;;;;;;;2.70;1.50;;;7.00;88.00;;;;;;5095830;28;20032;-70
2021/05/05 08:32:34;;;;;;;1.55;0.70;;;7.10;87.80;;;;;;5095783;28;20016;-70
2021/05/05 08:35:00;;;;;;;1.63;0.90;;;7.30;87.30;;;;;;5095744;28;20020;-72
2021/05/05 08:37:26;;;;;;;1.20;1.10;;;7.30;87.30;;;;;;5095753;28;20357;-70
2021/05/05 08:39:51;;;;;;;0.90;0.65;;;7.40;87.10;;;;;;5095048;28;20107;-71
2021/05/05 08:42:17;;;;;;;0.50;0.47;;;7.60;86.90;;;;;;5095445;28;20098;-70
2021/05/05 08:44:46;;;;;;;1.13;0.60;;;7.70;86.40;;;;;;5095737;28;20477;-70
2021/05/05 08:47:13;;;;;;;0.80;0.80;;;7.80;86.40;;;;;;5095451;28;20031;-70
2021/05/05 08:49:39;;;;;;;0.60;0.60;;;7.80;86.30;;;;;;5095513;28;20016;-70
2021/05/05 08:52:05;;;;;;;1.95;1.10;;;7.90;86.40;;;;;;5095470;28;20028;-70
2021/05/05 08:54:30;;;;;;;1.98;0.73;;;8.10;86.10;;;;;;5094756;28;20020;-67
2021/05/05 08:56:56;;;;;;;0.90;0.70;;;8.20;85.90;;;;;;5095292;28;20035;-69
2021/05/05 08:59:22;;;;;;;1.55;0.70;;;8.30;85.90;;;;;;5090950;28;20016;-69
2021/05/05 09:01:48;;;;;;;0.70;0.70;;;8.40;86.10;;;;;;5074001;28;20048;-68
2021/05/05 09:04:14;;;;;;;0.93;0.85;;;8.50;85.80;;;;;;5082385;28;20195;-68
2021/05/05 09:06:51;;;;;;;1.40;0.85;;;8.70;85.40;;;;;;5095045;28;20053;-68
2021/05/05 09:09:44;;;;;;;1.52;1.42;;;8.70;85.30;;;;;;5089047;28;20028;-68
2021/05/05 09:12:24;;;;;;;1.85;0.75;;;8.40;85.70;;;;;;5076851;28;20478;-69
2021/05/05 09:14:58;;;;;;;0.70;0.70;;;8.10;87.00;;;;;;5095143;28;20031;-68
2021/05/05 09:17:27;;;;;;;1.30;0.70;;;7.90;86.90;;;;;;5076929;28;20121;-69
2021/05/05 09:20:03;;;;;;;1.42;0.90;;;7.80;87.10;;;;;;5094591;28;20028;-69
2021/05/05 09:22:39;;;;;;;0.93;0.77;;;7.80;87.20;;;;;;5094831;28;20024;-68
2021/05/05 09:25:20;;;;;;;1.48;0.70;;;7.90;87.20;;;;;;5073162;28;20054;-69
2021/05/05 09:28:16;;;;;;;0.90;0.90;;;8.10;86.80;;;;;;5094915;28;20024;-68
2021/05/05 09:30:53;;;;;;;0.73;0.73;;;8.30;86.60;;;;;;5069102;28;20016;-68
2021/05/05 09:33:33;;;;;;;1.25;1.15;;;8.40;86.20;;;;;;5090990;28;20027;-70
2021/05/05 09:36:01;;;;;;;2.55;1.13;;;8.40;86.00;;;;;;5091913;28;20025;-69
2021/05/05 09:38:40;;;;;;;0.98;0.75;;;8.20;86.40;;;;;;5088481;28;20043;-68
2021/05/05 09:41:06;;;;;;;1.27;1.17;;;8.10;86.70;;;;;;5072879;28;20123;-68
2021/05/05 09:43:38;;;;;;;1.95;1.20;;;8.00;86.60;;;;;;5062965;28;20098;-70
2021/05/05 09:46:31;;;;;;;2.78;1.23;;;8.00;86.60;;;;;;5094336;28;20024;-70
2021/05/05 09:49:26;;;;;;;2.15;1.40;;;7.90;86.80;;;;;;5094169;28;20024;-69
2021/05/05 09:51:56;;;;;;;2.95;1.10;;;8.00;87.10;;;;;;5093780;28;20027;-70
2021/05/05 09:54:24;;;;;;;;;;;8.10;86.90;;;;;;5094865;28;20074;-70
2021/05/05 09:56:50;;;;;;;1.55;1.00;;;8.40;86.40;;;;;;5094326;28;19911;-69
2021/05/05 09:59:16;;;;;;;0.73;0.50;;;8.60;85.70;;;;;;5094255;28;20027;-69
2021/05/05 10:01:57;;;;;;;2.42;1.52;;;8.90;85.30;;;;;;5093750;28;20127;-69
2021/05/05 10:04:23;;;;;;;2.42;1.23;;;9.20;84.90;;;;;;5094078;28;20016;-69
2021/05/05 10:06:56;;;;;;;2.50;1.10;;;9.30;84.30;;;;;;5093793;28;20028;-70
2021/05/05 10:09:23;;;;;;;0.90;0.90;;;9.40;84.00;;;;;;5093973;28;20020;-70
2021/05/05 10:11:50;;;;;;;1.40;0.90;;;9.30;84.10;;;;;;5093658;28;20058;-70
2021/05/05 10:14:18;;;;;;;2.25;1.17;;;9.10;84.30;;;;;;5075652;28;20103;-69
2021/05/05 10:16:47;;;;;;;1.58;0.80;;;8.90;84.70;;;;;;5093985;28;20016;-69
2021/05/05 10:19:35;;;;;;;2.15;1.38;;;8.60;85.50;;;;;;5079207;28;20033;-69
2021/05/05 10:22:03;;;;;;;2.20;0.70;;;8.60;85.60;;;;;;5073077;28;20032;-70
2021/05/05 10:24:35;;;;;;;0.98;0.80;;;8.70;86.00;;;;;;5073463;28;20017;-70
2021/05/05 10:27:01;;;;;;;3.20;1.05;;;8.90;85.60;;;;;;5073341;28;20036;-70
2021/05/05 10:29:31;;;;;;;1.20;1.10;;;9.10;85.00;;;;;;5073517;28;20052;-70
2021/05/05 10:32:03;;;;;;;2.72;1.02;;;9.30;84.50;;;;;;5073593;28;20460;-70
2021/05/05 10:34:30;;;;;;;2.25;0.85;;;9.40;84.10;;;;;;5076460;28;20028;-70
2021/05/05 10:37:01;;;;;;;1.35;0.85;;;9.10;84.30;;;;;;5083315;28;20137;-69
2021/05/05 10:39:32;;;;;;;4.43;1.33;;;9.10;84.70;;;;;;5093418;28;20028;-70
2021/05/05 10:42:18;;;;;;;3.22;1.30;;;9.20;84.50;;;;;;5074728;28;20048;-70
2021/05/05 10:44:49;;;;;;;3.17;1.38;;;9.30;84.30;;;;;;5073234;28;20021;-69
2021/05/05 10:47:21;;;;;;;0.95;0.88;;;9.40;84.30;;;;;;5073220;28;20548;-70
2021/05/05 10:52:28;;;;;;;3.80;1.40;;;9.70;82.90;;;;;;5077393;28;20478;-68
2021/05/05 10:54:56;;;;;;;5.45;1.90;;;9.80;83.20;;;;;;5093275;28;20425;-71
2021/05/05 10:57:23;;;;;;;2.70;1.40;;;9.90;82.80;;;;;;5093138;28;20024;-68
2021/05/05 10:59:58;;;;;;;3.35;1.30;;;10.00;83.00;;;;;;5092973;28;20032;-67
2021/05/05 11:02:47;;;;;;;2.13;1.00;;;10.20;82.50;;;;;;5093550;28;20024;-68
2021/05/05 11:05:27;;;;;;;3.53;1.05;;;10.30;82.40;;;;;;5092714;28;20472;-68
2021/05/05 11:07:58;;;;;;;2.00;0.90;;;10.50;82.20;;;;;;5093146;28;20024;-68
2021/05/05 11:10:33;;;;;;;2.45;0.95;;;10.80;81.80;;;;;;5093194;28;20020;-69
2021/05/05 11:13:00;;;;;;;3.30;1.58;;;11.00;80.90;;;;;;5093253;28;20035;-69
2021/05/05 11:15:41;;;;;;;2.17;0.80;;;11.10;80.60;;;;;;5075080;28;20024;-69
2021/05/05 11:18:28;;;;;;;0.80;0.80;;;11.10;80.70;;;;;;5093051;28;20032;-68
2021/05/05 11:21:05;;;;;;;3.80;1.80;;;11.40;80.40;;;;;;5092671;28;20028;-69
2021/05/05 11:23:38;;;;;;;2.47;1.40;;;11.40;79.70;;;;;;5094754;28;20471;-69
2021/05/05 11:26:13;;;;;;;2.80;1.23;;;11.20;80.10;;;;;;5097286;28;20020;-69
2021/05/05 11:29:00;;;;;;;1.05;1.00;;;11.20;80.70;;;;;;5092203;28;20380;-69
2021/05/05 11:31:44;;;;;;;1.15;1.00;;;11.60;80.30;;;;;;5096982;28;20036;-68
2021/05/05 11:34:10;;;;;;;1.95;1.00;;;11.80;79.40;;;;;;5096540;28;20035;-67
2021/05/05 11:36:36;;;;;;;1.70;1.30;;;11.70;79.80;;;;;;5078895;28;20024;-68
2021/05/05 11:39:03;;;;;;;2.08;1.25;;;11.70;79.90;;;;;;5096970;28;20024;-69
2021/05/05 11:41:29;;;;;;;2.95;1.30;;;11.80;79.70;;;;;;5096702;28;20493;-68
2021/05/05 11:43:55;;;;;;;3.45;1.38;;;11.60;79.70;;;;;;5078545;28;20099;-69
2021/05/05 11:46:22;;;;;;;4.53;1.80;;;11.40;79.40;;;;;;5087590;28;20048;-70
2021/05/05 11:48:47;;;;;;;3.28;1.73;;;11.10;79.30;;;;;;5092131;28;20479;-68
2021/05/05 11:51:26;;;;;;;3.10;1.67;;;10.70;80.40;;;;;;5093716;28;20060;-70
2021/05/05 11:53:52;;;;;;;2.00;1.30;;;10.50;80.00;;;;;;5076309;28;20029;-68
2021/05/05 11:56:26;;;;;;;3.53;1.40;;;10.20;80.50;;;;;;5058438;28;20426;-68
2021/05/05 11:59:00;;;;;;;1.48;0.95;;;10.10;80.70;;;;;;5076243;28;20025;-68
2021/05/05 12:01:30;;;;;;;3.47;1.73;;;10.10;80.90;;;;;;5076015;28;20048;-68
2021/05/05 12:04:15;;;;;;;2.75;1.17;;;10.80;79.80;;;;;;5082467;28;20039;-70
2021/05/05 12:06:58;;;;;;;4.35;2.05;;;11.10;78.20;;;;;;5096197;28;20023;-71
2021/05/05 12:09:26;;;;;;;3.85;1.38;;;10.90;78.20;;;;;;5096365;28;20394;-68
2021/05/05 12:12:16;;;;;;;3.92;1.70;;;10.80;78.60;;;;;;5096378;28;20416;-69
2021/05/05 12:14:46;;;;;;;1.45;1.35;;;10.70;78.50;;;;;;5096101;28;20042;-68
2021/05/05 12:18:14;;;;;;;7.40;1.48;;;10.60;78.80;;;;;;5095728;28;20070;-68
2021/05/05 12:20:10;;;;;;;2.30;1.20;;;11.00;79.10;;;;;;5082551;28;20442;-68
2021/05/05 12:22:49;;;;;;;1.20;1.02;;;12.00;77.50;;;;;;5095965;28;20044;-68
2021/05/05 12:25:18;;;;;;;2.22;1.27;;;12.70;76.00;;;;;;5091101;28;20093;-69
2021/05/05 12:28:05;;;;;;;4.63;1.65;;;13.10;74.90;;;;;;5096003;28;20023;-70
2021/05/05 12:30:42;;;;;;;3.17;1.52;;;13.40;74.20;;;;;;5095849;28;20019;-68
2021/05/05 12:33:08;;;;;;;3.13;1.60;;;13.00;74.30;;;;;;5095605;28;20460;-68
2021/05/05 12:35:35;;;;;;;4.95;1.40;;;12.20;75.50;;;;;;5094309;28;20418;-68
2021/05/05 12:38:06;;;;;;;2.90;1.27;;;11.70;77.10;;;;;;5095682;28;20016;-68
2021/05/05 12:40:32;;;;;;;3.97;1.65;;;11.60;78.00;;;;;;5095543;28;20392;-69
2021/05/05 12:43:14;;;;;;;4.55;2.33;;;11.50;77.70;;;;;;5077632;28;20421;-68
2021/05/05 12:45:39;;;;;;;3.63;2.15;;;11.30;77.10;;;;;;5095615;28;20456;-69
2021/05/05 12:48:06;;;;;;;3.92;1.70;;;10.80;77.40;;;;;;5095018;28;20035;-68
2021/05/05 12:50:41;;;;;;;3.22;1.23;;;10.60;77.80;;;;;;5095499;28;20056;-68
2021/05/05 12:53:11;;;;;;;3.30;1.70;;;10.80;77.70;;;;;;5077263;28;20384;-69
2021/05/05 12:55:40;;;;;;;3.53;1.85;;;11.40;76.10;;;;;;5095537;28;20047;-68
2021/05/05 12:58:15;;;;;;;2.88;1.10;;;12.20;75.00;;;;;;5095555;28;20020;-68
2021/05/05 13:00:44;;;;;;;2.05;1.33;;;12.60;73.40;;;;;;5094337;28;20131;-67
2021/05/05 13:03:18;;;;;;;3.10;1.20;;;12.80;73.50;;;;;;5095440;28;20086;-69
2021/05/05 13:06:02;;;;;;;2.97;1.23;;;13.10;71.30;;;;;;5095367;28;20430;-68
2021/05/05 13:08:37;;;;;;;3.70;1.45;;;13.00;72.20;;;;;;5095231;28;20145;-68
2021/05/05 13:11:10;;;;;;;3.80;1.40;;;13.40;71.90;;;;;;5095073;28;20085;-68